sensor_id;sensor_type;location;lat;lon;timestamp;pressure;altitude;pressure_sealevel;temperature;humidity
66021;BME280;52789;59.980;30.346;2024-02-23T00:00:53;100698.88;;;1.77;100.00
66021;BME280;52789;59.980;30.346;2024-02-23T00:03:18;100701.28;;;1.80;100.00
66021;BME280;52789;59.980;30.346;2024-02-23T00:05:44;100685.94;;;1.74;100.00
66021;BME280;52789;59.980;30.346;2024-02-23T00:08:09;100691.19;;;1.74;100.00
66021;BME280;52789;59.980;30.346;2024-02-23T00:10:35;100711.13;;;1.89;100.00
66021;BME280;52789;59.980;30.346;2024-02-23T00:13:01;100681.53;;;1.74;100.00
66021;BME280;52789;59.980;30.346;2024-02-23T00:15:27;100701.22;;;1.93;100.00
66021;BME280;52789;59.980;30.346;2024-02-23T00:17:52;100700.91;;;1.97;100.00
66021;BME280;52789;59.980;30.346;2024-02-23T00:20:18;100695.75;;;1.96;100.00
66021;BME280;52789;59.980;30.346;2024-02-23T00:22:44;100680.66;;;1.86;100.00
66021;BME280;52789;59.980;30.346;2024-02-23T00:25:09;100676.91;;;1.78;100.00
66021;BME280;52789;59.980;30.346;2024-02-23T00:27:37;100692.50;;;1.92;100.00
66021;BME280;52789;59.980;30.346;2024-02-23T00:30:05;100685.97;;;1.98;100.00
66021;BME280;52789;59.980;30.346;2024-02-23T00:32:31;100693.00;;;1.97;100.00
66021;BME280;52789;59.980;30.346;2024-02-23T00:34:56;100681.38;;;1.89;100.00
66021;BME280;52789;59.980;30.346;2024-02-23T00:37:23;100657.97;;;1.85;100.00
66021;BME280;52789;59.980;30.346;2024-02-23T00:39:49;100682.63;;;1.96;100.00
66021;BME280;52789;59.980;30.346;2024-02-23T00:42:14;100683.91;;;1.90;100.00
66021;BME280;52789;59.980;30.346;2024-02-23T00:44:40;100696.47;;;1.98;100.00
66021;BME280;52789;59.980;30.346;2024-02-23T00:47:06;100667.75;;;1.83;100.00
66021;BME280;52789;59.980;30.346;2024-02-23T00:49:31;100671.94;;;1.86;100.00
66021;BME280;52789;59.980;30.346;2024-02-23T00:51:57;100659.03;;;1.83;100.00
66021;BME280;52789;59.980;30.346;2024-02-23T00:54:22;100686.09;;;1.96;100.00
66021;BME280;52789;59.980;30.346;2024-02-23T00:56:48;100667.41;;;1.88;100.00
66021;BME280;52789;59.980;30.346;2024-02-23T00:59:13;100665.22;;;1.82;100.00
66021;BME280;52789;59.980;30.346;2024-02-23T01:01:39;100659.97;;;1.82;100.00
66021;BME280;52789;59.980;30.346;2024-02-23T01:04:05;100656.75;;;1.78;100.00
66021;BME280;52789;59.980;30.346;2024-02-23T01:06:30;100654.22;;;1.77;100.00
66021;BME280;52789;59.980;30.346;2024-02-23T01:08:56;100679.72;;;1.88;100.00
66021;BME280;52789;59.980;30.346;2024-02-23T01:11:21;100673.50;;;1.89;100.00
66021;BME280;52789;59.980;30.346;2024-02-23T01:13:47;100677.25;;;1.97;100.00
66021;BME280;52789;59.980;30.346;2024-02-23T01:16:12;100671.00;;;1.87;100.00
66021;BME280;52789;59.980;30.346;2024-02-23T01:18:38;100674.13;;;1.92;100.00
66021;BME280;52789;59.980;30.346;2024-02-23T01:21:03;100680.84;;;1.96;100.00
66021;BME280;52789;59.980;30.346;2024-02-23T01:23:29;100682.63;;;1.96;100.00
66021;BME280;52789;59.980;30.346;2024-02-23T01:25:55;100684.41;;;1.95;100.00
66021;BME280;52789;59.980;30.346;2024-02-23T01:28:21;100672.88;;;1.85;100.00
66021;BME280;52789;59.980;30.346;2024-02-23T01:30:47;100627.59;;;1.58;100.00
66021;BME280;52789;59.980;30.346;2024-02-23T01:33:13;100683.06;;;1.90;100.00
66021;BME280;52789;59.980;30.346;2024-02-23T01:35:38;100677.91;;;1.88;100.00
66021;BME280;52789;59.980;30.346;2024-02-23T01:38:04;100643.94;;;1.74;100.00
66021;BME280;52789;59.980;30.346;2024-02-23T01:40:30;100677.69;;;1.91;100.00
66021;BME280;52789;59.980;30.346;2024-02-23T01:43:05;100669.31;;;1.86;100.00
66021;BME280;52789;59.980;30.346;2024-02-23T01:45:31;100681.56;;;1.98;100.00
66021;BME280;52789;59.980;30.346;2024-02-23T01:47:58;100634.34;;;1.73;100.00
66021;BME280;52789;59.980;30.346;2024-02-23T01:50:25;100663.84;;;1.89;100.00
66021;BME280;52789;59.980;30.346;2024-02-23T01:52:52;100673.47;;;2.01;100.00
66021;BME280;52789;59.980;30.346;2024-02-23T01:55:20;100683.13;;;2.01;100.00
66021;BME280;52789;59.980;30.346;2024-02-23T01:57:46;100678.09;;;1.98;100.00
66021;BME280;52789;59.980;30.346;2024-02-23T02:00:16;100617.09;;;1.58;100.00
66021;BME280;52789;59.980;30.346;2024-02-23T02:02:43;100657.34;;;1.82;100.00
66021;BME280;52789;59.980;30.346;2024-02-23T02:05:09;100670.56;;;1.93;100.00
66021;BME280;52789;59.980;30.346;2024-02-23T02:07:35;100633.63;;;1.71;100.00
66021;BME280;52789;59.980;30.346;2024-02-23T02:10:00;100641.31;;;1.74;100.00
66021;BME280;52789;59.980;30.346;2024-02-23T02:12:27;100654.72;;;1.82;100.00
66021;BME280;52789;59.980;30.346;2024-02-23T02:14:53;100648.97;;;1.77;100.00
66021;BME280;52789;59.980;30.346;2024-02-23T02:17:19;100627.97;;;1.77;100.00
66021;BME280;52789;59.980;30.346;2024-02-23T02:19:49;100640.94;;;1.91;100.00
66021;BME280;52789;59.980;30.346;2024-02-23T02:22:15;100627.53;;;1.83;100.00
66021;BME280;52789;59.980;30.346;2024-02-23T02:24:40;100642.38;;;1.95;100.00
66021;BME280;52789;59.980;30.346;2024-02-23T02:27:10;100631.09;;;1.82;100.00
66021;BME280;52789;59.980;30.346;2024-02-23T02:29:35;100636.47;;;1.80;100.00
66021;BME280;52789;59.980;30.346;2024-02-23T02:32:01;100607.75;;;1.53;100.00
66021;BME280;52789;59.980;30.346;2024-02-23T02:34:28;100620.56;;;1.58;100.00
66021;BME280;52789;59.980;30.346;2024-02-23T02:36:55;100633.00;;;1.67;100.00
66021;BME280;52789;59.980;30.346;2024-02-23T02:39:21;100606.69;;;1.56;100.00
66021;BME280;52789;59.980;30.346;2024-02-23T02:41:48;100639.31;;;1.77;100.00
66021;BME280;52789;59.980;30.346;2024-02-23T02:44:14;100636.78;;;1.76;100.00
66021;BME280;52789;59.980;30.346;2024-02-23T02:46:40;100649.75;;;1.90;100.00
66021;BME280;52789;59.980;30.346;2024-02-23T02:49:06;100647.88;;;1.92;100.00
66021;BME280;52789;59.980;30.346;2024-02-23T02:51:31;100630.25;;;1.81;100.00
66021;BME280;52789;59.980;30.346;2024-02-23T02:53:57;100652.38;;;1.90;100.00
66021;BME280;52789;59.980;30.346;2024-02-23T02:56:22;100635.50;;;1.81;100.00
66021;BME280;52789;59.980;30.346;2024-02-23T02:58:48;100646.41;;;1.88;100.00
66021;BME280;52789;59.980;30.346;2024-02-23T03:01:14;100654.78;;;1.93;100.00
66021;BME280;52789;59.980;30.346;2024-02-23T03:03:39;100656.88;;;2.01;100.00
66021;BME280;52789;59.980;30.346;2024-02-23T03:06:05;100641.38;;;1.85;100.00
66021;BME280;52789;59.980;30.346;2024-02-23T03:08:31;100656.03;;;2.00;100.00
66021;BME280;52789;59.980;30.346;2024-02-23T03:10:57;100651.09;;;1.96;100.00
66021;BME280;52789;59.980;30.346;2024-02-23T03:13:22;100662.00;;;2.02;100.00
66021;BME280;52789;59.980;30.346;2024-02-23T03:15:48;100614.31;;;1.72;100.00
66021;BME280;52789;59.980;30.346;2024-02-23T03:18:13;100668.00;;;2.04;100.00
66021;BME280;52789;59.980;30.346;2024-02-23T03:20:41;100634.44;;;1.84;100.00
66021;BME280;52789;59.980;30.346;2024-02-23T03:23:07;100650.03;;;1.98;100.00
66021;BME280;52789;59.980;30.346;2024-02-23T03:25:33;100611.38;;;1.76;100.00
66021;BME280;52789;59.980;30.346;2024-02-23T03:28:00;100627.97;;;1.77;100.00
66021;BME280;52789;59.980;30.346;2024-02-23T03:30:25;100651.22;;;1.94;100.00
66021;BME280;52789;59.980;30.346;2024-02-23T03:32:51;100658.75;;;1.99;100.00
66021;BME280;52789;59.980;30.346;2024-02-23T03:35:17;100648.69;;;1.93;100.00
66021;BME280;52789;59.980;30.346;2024-02-23T03:37:42;100640.72;;;1.94;100.00
66021;BME280;52789;59.980;30.346;2024-02-23T03:40:08;100643.13;;;1.97;100.00
66021;BME280;52789;59.980;30.346;2024-02-23T03:42:35;100641.56;;;1.95;100.00
66021;BME280;52789;59.980;30.346;2024-02-23T03:45:01;100635.69;;;1.91;100.00
66021;BME280;52789;59.980;30.346;2024-02-23T03:47:30;100643.13;;;1.97;100.00
66021;BME280;52789;59.980;30.346;2024-02-23T03:49:55;100609.03;;;1.84;100.00
66021;BME280;52789;59.980;30.346;2024-02-23T03:52:21;100635.13;;;1.99;100.00
66021;BME280;52789;59.980;30.346;2024-02-23T03:54:46;100618.03;;;1.93;100.00
66021;BME280;52789;59.980;30.346;2024-02-23T03:57:12;100617.28;;;1.91;100.00
66021;BME280;52789;59.980;30.346;2024-02-23T03:59:37;100608.63;;;1.78;100.00
66021;BME280;52789;59.980;30.346;2024-02-23T04:02:04;100620.47;;;1.83;100.00
66021;BME280;52789;59.980;30.346;2024-02-23T04:04:29;100617.97;;;1.82;100.00
66021;BME280;52789;59.980;30.346;2024-02-23T04:06:55;100638.69;;;1.98;100.00
66021;BME280;52789;59.980;30.346;2024-02-23T04:09:20;100646.56;;;1.98;100.00
66021;BME280;52789;59.980;30.346;2024-02-23T04:11:49;100633.56;;;1.96;100.00
66021;BME280;52789;59.980;30.346;2024-02-23T04:14:15;100637.88;;;1.97;100.00
66021;BME280;52789;59.980;30.346;2024-02-23T04:16:40;100633.56;;;1.96;100.00
66021;BME280;52789;59.980;30.346;2024-02-23T04:19:06;100640.25;;;2.00;100.00
66021;BME280;52789;59.980;30.346;2024-02-23T04:21:32;100637.00;;;2.09;100.00
66021;BME280;52789;59.980;30.346;2024-02-23T04:23:57;100635.09;;;2.11;100.00
66021;BME280;52789;59.980;30.346;2024-02-23T04:26:23;100627.66;;;2.05;100.00
66021;BME280;52789;59.980;30.346;2024-02-23T04:28:50;100615.16;;;1.96;100.00
66021;BME280;52789;59.980;30.346;2024-02-23T04:31:16;100599.38;;;1.85;100.00
66021;BME280;52789;59.980;30.346;2024-02-23T04:33:41;100567.16;;;1.70;100.00
66021;BME280;52789;59.980;30.346;2024-02-23T04:36:07;100616.84;;;1.97;100.00
66021;BME280;52789;59.980;30.346;2024-02-23T04:38:33;100577.13;;;1.78;100.00
66021;BME280;52789;59.980;30.346;2024-02-23T04:41:02;100606.78;;;1.91;100.00
66021;BME280;52789;59.980;30.346;2024-02-23T04:43:28;100604.38;;;1.88;100.00
66021;BME280;52789;59.980;30.346;2024-02-23T04:45:53;100596.75;;;1.85;100.00
66021;BME280;52789;59.980;30.346;2024-02-23T04:48:19;100587.41;;;1.81;100.00
66021;BME280;52789;59.980;30.346;2024-02-23T04:50:44;100617.06;;;1.94;100.00
66021;BME280;52789;59.980;30.346;2024-02-23T04:53:10;100593.28;;;1.84;100.00
66021;BME280;52789;59.980;30.346;2024-02-23T04:55:38;100592.16;;;1.76;100.00
66021;BME280;52789;59.980;30.346;2024-02-23T04:58:04;100611.09;;;1.92;100.00
66021;BME280;52789;59.980;30.346;2024-02-23T05:00:30;100587.84;;;1.75;100.00
66021;BME280;52789;59.980;30.346;2024-02-23T05:03:00;100615.84;;;1.87;100.00
66021;BME280;52789;59.980;30.346;2024-02-23T05:05:28;100606.06;;;1.89;100.00
66021;BME280;52789;59.980;30.346;2024-02-23T05:07:54;100592.31;;;1.85;100.00
66021;BME280;52789;59.980;30.346;2024-02-23T05:10:19;100580.88;;;1.86;100.00
66021;BME280;52789;59.980;30.346;2024-02-23T05:12:45;100603.50;;;2.00;100.00
66021;BME280;52789;59.980;30.346;2024-02-23T05:15:11;100454.94;;;1.13;100.00
66021;BME280;52789;59.980;30.346;2024-02-23T05:17:36;100561.16;;;1.81;100.00
66021;BME280;52789;59.980;30.346;2024-02-23T05:20:02;100568.69;;;1.85;100.00
66021;BME280;52789;59.980;30.346;2024-02-23T05:22:33;100569.88;;;1.81;100.00
66021;BME280;52789;59.980;30.346;2024-02-23T05:25:04;100599.91;;;2.01;100.00
66021;BME280;52789;59.980;30.346;2024-02-23T05:27:31;100544.81;;;1.65;100.00
66021;BME280;52789;59.980;30.346;2024-02-23T05:29:58;100588.75;;;1.86;100.00
66021;BME280;52789;59.980;30.346;2024-02-23T05:32:24;100610.88;;;1.95;100.00
66021;BME280;52789;59.980;30.346;2024-02-23T05:34:49;100611.72;;;1.96;100.00
66021;BME280;52789;59.980;30.346;2024-02-23T05:37:18;100590.19;;;1.91;100.00
66021;BME280;52789;59.980;30.346;2024-02-23T05:39:44;100505.66;;;1.38;100.00
66021;BME280;52789;59.980;30.346;2024-02-23T05:42:14;100593.72;;;2.02;100.00
66021;BME280;52789;59.980;30.346;2024-02-23T05:44:42;100600.44;;;2.06;100.00
66021;BME280;52789;59.980;30.346;2024-02-23T05:47:08;100564.06;;;1.89;100.00
66021;BME280;52789;59.980;30.346;2024-02-23T05:49:35;100592.78;;;2.03;100.00
66021;BME280;52789;59.980;30.346;2024-02-23T05:52:00;100589.03;;;1.95;100.00
66021;BME280;52789;59.980;30.346;2024-02-23T05:54:26;100530.09;;;1.75;100.00
66021;BME280;52789;59.980;30.346;2024-02-23T05:56:55;100574.09;;;1.95;100.00
66021;BME280;52789;59.980;30.346;2024-02-23T05:59:21;100592.34;;;2.09;100.00
66021;BME280;52789;59.980;30.346;2024-02-23T06:01:48;100577.91;;;1.91;100.00
66021;BME280;52789;59.980;30.346;2024-02-23T06:04:14;100556.75;;;1.81;100.00
66021;BME280;52789;59.980;30.346;2024-02-23T06:06:42;100510.19;;;1.60;100.00
66021;BME280;52789;59.980;30.346;2024-02-23T06:09:08;100575.44;;;2.01;100.00
66021;BME280;52789;59.980;30.346;2024-02-23T06:11:35;100548.97;;;1.80;100.00
66021;BME280;52789;59.980;30.346;2024-02-23T06:14:00;100576.81;;;2.06;100.00
66021;BME280;52789;59.980;30.346;2024-02-23T06:16:26;100574.78;;;2.10;100.00
66021;BME280;52789;59.980;30.346;2024-02-23T06:18:51;100574.91;;;2.08;100.00
66021;BME280;52789;59.980;30.346;2024-02-23T06:21:17;100588.19;;;2.18;100.00
66021;BME280;52789;59.980;30.346;2024-02-23T06:23:43;100586.16;;;2.22;100.00
66021;BME280;52789;59.980;30.346;2024-02-23T06:26:12;100587.84;;;2.23;100.00
66021;BME280;52789;59.980;30.346;2024-02-23T06:28:39;100578.16;;;2.23;100.00
66021;BME280;52789;59.980;30.346;2024-02-23T06:31:07;100589.50;;;2.24;100.00
66021;BME280;52789;59.980;30.346;2024-02-23T06:33:33;100579.00;;;2.24;100.00
66021;BME280;52789;59.980;30.346;2024-02-23T06:35:58;100595.06;;;2.32;100.00
66021;BME280;52789;59.980;30.346;2024-02-23T06:38:24;100595.25;;;2.29;100.00
66021;BME280;52789;59.980;30.346;2024-02-23T06:40:51;100572.56;;;2.28;100.00
66021;BME280;52789;59.980;30.346;2024-02-23T06:43:16;100574.97;;;2.31;100.00
66021;BME280;52789;59.980;30.346;2024-02-23T06:45:42;100576.66;;;2.32;100.00
66021;BME280;52789;59.980;30.346;2024-02-23T06:48:08;100597.22;;;2.38;100.00
66021;BME280;52789;59.980;30.346;2024-02-23T06:50:34;100578.84;;;2.38;100.00
66021;BME280;52789;59.980;30.346;2024-02-23T06:53:00;100563.09;;;2.14;100.00
66021;BME280;52789;59.980;30.346;2024-02-23T06:55:26;100534.38;;;2.00;100.00
66021;BME280;52789;59.980;30.346;2024-02-23T06:57:51;100587.06;;;2.33;100.00
66021;BME280;52789;59.980;30.346;2024-02-23T07:00:17;100588.38;;;2.39;100.00
66021;BME280;52789;59.980;30.346;2024-02-23T07:02:42;100540.41;;;2.13;100.00
66021;BME280;52789;59.980;30.346;2024-02-23T07:05:08;100548.53;;;2.21;100.00
66021;BME280;52789;59.980;30.346;2024-02-23T07:07:34;100575.97;;;2.41;100.00
66021;BME280;52789;59.980;30.346;2024-02-23T07:10:00;100552.00;;;2.22;100.00
66021;BME280;52789;59.980;30.346;2024-02-23T07:12:26;100584.81;;;2.40;100.00
66021;BME280;52789;59.980;30.346;2024-02-23T07:14:56;100529.06;;;2.12;100.00
66021;BME280;52789;59.980;30.346;2024-02-23T07:17:22;100588.75;;;2.45;100.00
66021;BME280;52789;59.980;30.346;2024-02-23T07:19:47;100558.59;;;2.27;100.00
66021;BME280;52789;59.980;30.346;2024-02-23T07:22:13;100590.44;;;2.46;100.00
66021;BME280;52789;59.980;30.346;2024-02-23T07:24:42;100586.47;;;2.41;100.00
66021;BME280;52789;59.980;30.346;2024-02-23T07:27:08;100546.97;;;2.18;100.00
66021;BME280;52789;59.980;30.346;2024-02-23T07:29:34;100579.06;;;2.35;100.00
66021;BME280;52789;59.980;30.346;2024-02-23T07:32:00;100583.00;;;2.40;100.00
66021;BME280;52789;59.980;30.346;2024-02-23T07:34:28;100586.00;;;2.47;100.00
66021;BME280;52789;59.980;30.346;2024-02-23T07:36:54;100574.53;;;2.37;100.00
66021;BME280;52789;59.980;30.346;2024-02-23T07:39:21;100575.38;;;2.37;100.00
66021;BME280;52789;59.980;30.346;2024-02-23T07:41:47;100597.03;;;2.52;100.00
66021;BME280;52789;59.980;30.346;2024-02-23T07:44:12;100597.97;;;2.51;100.00
66021;BME280;52789;59.980;30.346;2024-02-23T07:46:38;100573.00;;;2.45;100.00
66021;BME280;52789;59.980;30.346;2024-02-23T07:49:04;100589.63;;;2.57;100.00
66021;BME280;52789;59.980;30.346;2024-02-23T07:51:31;100591.69;;;2.65;100.00
66021;BME280;52789;59.980;30.346;2024-02-23T07:53:57;100584.59;;;2.54;100.00
66021;BME280;52789;59.980;30.346;2024-02-23T07:56:22;100592.88;;;2.61;100.00
66021;BME280;52789;59.980;30.346;2024-02-23T07:58:48;100599.47;;;2.66;100.00
66021;BME280;52789;59.980;30.346;2024-02-23T08:01:14;100608.56;;;2.73;100.00
66021;BME280;52789;59.980;30.346;2024-02-23T08:03:40;100550.66;;;2.51;100.00
66021;BME280;52789;59.980;30.346;2024-02-23T08:06:06;100549.28;;;2.69;100.00
66021;BME280;52789;59.980;30.346;2024-02-23T08:08:31;100576.31;;;2.94;100.00
66021;BME280;52789;59.980;30.346;2024-02-23T08:11:03;100581.81;;;3.02;100.00
66021;BME280;52789;59.980;30.346;2024-02-23T08:13:29;100545.97;;;2.90;100.00
66021;BME280;52789;59.980;30.346;2024-02-23T08:15:55;100594.53;;;3.19;100.00
66021;BME280;52789;59.980;30.346;2024-02-23T08:18:20;100581.56;;;3.16;100.00
66021;BME280;52789;59.980;30.346;2024-02-23T08:20:48;100591.41;;;3.25;100.00
66021;BME280;52789;59.980;30.346;2024-02-23T08:23:14;100595.72;;;3.26;100.00
66021;BME280;52789;59.980;30.346;2024-02-23T08:25:40;100566.75;;;3.15;100.00
66021;BME280;52789;59.980;30.346;2024-02-23T08:28:07;100596.44;;;3.28;100.00
66021;BME280;52789;59.980;30.346;2024-02-23T08:30:33;100566.63;;;3.05;100.00
66021;BME280;52789;59.980;30.346;2024-02-23T08:32:59;100602.06;;;3.24;100.00
66021;BME280;52789;59.980;30.346;2024-02-23T08:35:25;100563.41;;;3.02;100.00
66021;BME280;52789;59.980;30.346;2024-02-23T08:37:50;100583.59;;;3.13;100.00
66021;BME280;52789;59.980;30.346;2024-02-23T08:40:16;100604.78;;;3.11;100.00
66021;BME280;52789;59.980;30.346;2024-02-23T08:42:42;100597.97;;;3.08;100.00
66021;BME280;52789;59.980;30.346;2024-02-23T08:45:08;100588.50;;;3.06;100.00
66021;BME280;52789;59.980;30.346;2024-02-23T08:47:35;100582.53;;;3.04;100.00
66021;BME280;52789;59.980;30.346;2024-02-23T08:50:02;100586.72;;;3.06;100.00
66021;BME280;52789;59.980;30.346;2024-02-23T08:52:30;100603.38;;;3.18;100.00
66021;BME280;52789;59.980;30.346;2024-02-23T08:54:56;100603.38;;;3.18;100.00
66021;BME280;52789;59.980;30.346;2024-02-23T08:57:24;100599.88;;;3.18;100.00
66021;BME280;52789;59.980;30.346;2024-02-23T08:59:49;100586.72;;;3.06;100.00
66021;BME280;52789;59.980;30.346;2024-02-23T09:02:15;100583.97;;;2.97;100.00
66021;BME280;52789;59.980;30.346;2024-02-23T09:04:41;100609.47;;;3.19;100.00
66021;BME280;52789;59.980;30.346;2024-02-23T09:07:07;100560.78;;;2.91;100.00
66021;BME280;52789;59.980;30.346;2024-02-23T09:09:32;100559.09;;;3.01;100.00
66021;BME280;52789;59.980;30.346;2024-02-23T09:11:58;100578.94;;;3.05;100.00
66021;BME280;52789;59.980;30.346;2024-02-23T09:14:24;100575.34;;;3.06;100.00
66021;BME280;52789;59.980;30.346;2024-02-23T09:16:51;100565.31;;;3.00;100.00
66021;BME280;52789;59.980;30.346;2024-02-23T09:19:18;100565.44;;;2.98;100.00
66021;BME280;52789;59.980;30.346;2024-02-23T09:21:44;100603.38;;;3.18;100.00
66021;BME280;52789;59.980;30.346;2024-02-23T09:24:10;100575.25;;;3.07;100.00
66021;BME280;52789;59.980;30.346;2024-02-23T09:26:37;100600.97;;;3.26;100.00
66021;BME280;52789;59.980;30.346;2024-02-23T09:29:03;100600.97;;;3.26;100.00
66021;BME280;52789;59.980;30.346;2024-02-23T09:31:28;100604.44;;;3.27;100.00
66021;BME280;52789;59.980;30.346;2024-02-23T09:33:55;100606.84;;;3.30;100.00
66021;BME280;52789;59.980;30.346;2024-02-23T09:36:21;100588.41;;;3.19;100.00
66021;BME280;52789;59.980;30.346;2024-02-23T09:38:47;100599.53;;;3.33;100.00
66021;BME280;52789;59.980;30.346;2024-02-23T09:41:22;100571.31;;;3.24;100.00
66021;BME280;52789;59.980;30.346;2024-02-23T09:43:49;100584.94;;;3.29;100.00
66021;BME280;52789;59.980;30.346;2024-02-23T09:46:18;100609.00;;;3.47;100.00
66021;BME280;52789;59.980;30.346;2024-02-23T09:48:43;100608.25;;;3.56;100.00
66021;BME280;52789;59.980;30.346;2024-02-23T09:51:15;100584.34;;;3.48;100.00
66021;BME280;52789;59.980;30.346;2024-02-23T09:53:41;100583.97;;;3.41;100.00
66021;BME280;52789;59.980;30.346;2024-02-23T09:56:10;100582.28;;;3.40;100.00
66021;BME280;52789;59.980;30.346;2024-02-23T09:58:37;100551.94;;;3.25;100.00
66021;BME280;52789;59.980;30.346;2024-02-23T10:01:03;100585.19;;;3.49;100.00
66021;BME280;52789;59.980;30.346;2024-02-23T10:03:29;100531.13;;;3.22;100.00
66021;BME280;52789;59.980;30.346;2024-02-23T10:05:59;100587.06;;;3.58;100.00
66021;BME280;52789;59.980;30.346;2024-02-23T10:08:30;100573.41;;;3.64;100.00
66021;BME280;52789;59.980;30.346;2024-02-23T10:10:56;100573.16;;;3.67;100.00
66021;BME280;52789;59.980;30.346;2024-02-23T10:13:23;100566.47;;;3.63;100.00
66021;BME280;52789;59.980;30.346;2024-02-23T10:15:52;100567.44;;;3.62;100.00
66021;BME280;52789;59.980;30.346;2024-02-23T10:18:19;100576.75;;;3.66;100.00
66021;BME280;52789;59.980;30.346;2024-02-23T10:20:45;100576.75;;;3.66;100.00
66021;BME280;52789;59.980;30.346;2024-02-23T10:23:11;100505.03;;;3.30;100.00
66021;BME280;52789;59.980;30.346;2024-02-23T10:25:37;100559.78;;;3.59;100.00
66021;BME280;52789;59.980;30.346;2024-02-23T10:28:06;100575.66;;;3.68;100.00
66021;BME280;52789;59.980;30.346;2024-02-23T10:30:32;100549.00;;;3.62;100.00
66021;BME280;52789;59.980;30.346;2024-02-23T10:32:59;100569.19;;;3.72;100.00
66021;BME280;52789;59.980;30.346;2024-02-23T10:35:25;100580.56;;;3.84;100.00
66021;BME280;52789;59.980;30.346;2024-02-23T10:37:53;100567.25;;;3.86;100.00
66021;BME280;52789;59.980;30.346;2024-02-23T10:40:20;100571.94;;;3.82;100.00
66021;BME280;52789;59.980;30.346;2024-02-23T10:42:47;100510.63;;;3.48;100.00
66021;BME280;52789;59.980;30.346;2024-02-23T10:45:18;100532.94;;;3.65;100.00
66021;BME280;52789;59.980;30.346;2024-02-23T10:47:43;100548.25;;;3.71;100.00
66021;BME280;52789;59.980;30.346;2024-02-23T10:50:10;100497.09;;;3.41;100.00
66021;BME280;52789;59.980;30.346;2024-02-23T10:52:41;100544.31;;;3.65;100.00
66021;BME280;52789;59.980;30.346;2024-02-23T10:55:10;100549.94;;;3.61;100.00
66021;BME280;52789;59.980;30.346;2024-02-23T10:57:36;100557.84;;;3.61;100.00
66021;BME280;52789;59.980;30.346;2024-02-23T11:00:04;100529.16;;;3.47;100.00
66021;BME280;52789;59.980;30.346;2024-02-23T11:02:54;100542.31;;;3.47;100.00
66021;BME280;52789;59.980;30.346;2024-02-23T11:05:21;100556.19;;;3.60;100.00
66021;BME280;52789;59.980;30.346;2024-02-23T11:07:48;100556.09;;;3.50;100.00
66021;BME280;52789;59.980;30.346;2024-02-23T11:10:17;100567.88;;;3.67;100.00
66021;BME280;52789;59.980;30.346;2024-02-23T11:12:43;100568.84;;;3.66;100.00
66021;BME280;52789;59.980;30.346;2024-02-23T11:15:09;100560.63;;;3.59;100.00
66021;BME280;52789;59.980;30.346;2024-02-23T11:17:36;100556.94;;;3.51;100.00
66021;BME280;52789;59.980;30.346;2024-02-23T11:20:07;100550.19;;;3.58;100.00
66021;BME280;52789;59.980;30.346;2024-02-23T11:22:34;100555.19;;;3.72;100.00
66021;BME280;52789;59.980;30.346;2024-02-23T11:25:04;100536.75;;;3.72;100.00
66021;BME280;52789;59.980;30.346;2024-02-23T11:27:36;100550.50;;;3.76;100.00
66021;BME280;52789;59.980;30.346;2024-02-23T11:30:10;100535.06;;;3.71;100.00
66021;BME280;52789;59.980;30.346;2024-02-23T11:32:41;100549.19;;;3.81;100.00
66021;BME280;52789;59.980;30.346;2024-02-23T11:35:11;100539.63;;;3.69;100.00
66021;BME280;52789;59.980;30.346;2024-02-23T11:37:52;100554.47;;;3.81;100.00
66021;BME280;52789;59.980;30.346;2024-02-23T11:40:32;100564.63;;;3.74;100.00
66021;BME280;52789;59.980;30.346;2024-02-23T11:42:59;100502.22;;;3.43;100.00
66021;BME280;52789;59.980;30.346;2024-02-23T11:45:28;100551.44;;;3.86;100.00
66021;BME280;52789;59.980;30.346;2024-02-23T11:47:53;100543.66;;;3.84;100.00
66021;BME280;52789;59.980;30.346;2024-02-23T11:50:19;100535.66;;;3.74;100.00
66021;BME280;52789;59.980;30.346;2024-02-23T11:52:48;100513.94;;;3.61;100.00
66021;BME280;52789;59.980;30.346;2024-02-23T11:55:18;100521.50;;;3.55;100.00
66021;BME280;52789;59.980;30.346;2024-02-23T11:57:46;100524.00;;;3.45;100.00
66021;BME280;52789;59.980;30.346;2024-02-23T12:00:13;100549.50;;;3.56;100.00
66021;BME280;52789;59.980;30.346;2024-02-23T12:02:38;100486.59;;;3.30;100.00
66021;BME280;52789;59.980;30.346;2024-02-23T12:05:04;100525.66;;;3.46;100.00
66021;BME280;52789;59.980;30.346;2024-02-23T12:07:31;100521.25;;;3.58;100.00
66021;BME280;52789;59.980;30.346;2024-02-23T12:09:57;100518.56;;;3.69;100.00
66021;BME280;52789;59.980;30.346;2024-02-23T12:12:25;100502.09;;;3.56;100.00
66021;BME280;52789;59.980;30.346;2024-02-23T12:14:51;100489.91;;;3.55;100.00
66021;BME280;52789;59.980;30.346;2024-02-23T12:17:17;100488.94;;;3.45;100.00
66021;BME280;52789;59.980;30.346;2024-02-23T12:19:42;100493.16;;;3.47;100.00
66021;BME280;52789;59.980;30.346;2024-02-23T12:22:10;100527.75;;;3.74;100.00
66021;BME280;52789;59.980;30.346;2024-02-23T12:24:37;100515.84;;;3.59;100.00
66021;BME280;52789;59.980;30.346;2024-02-23T12:27:17;100353.41;;;2.64;100.00
66021;BME280;52789;59.980;30.346;2024-02-23T12:29:51;100507.44;;;3.65;100.00
66021;BME280;52789;59.980;30.346;2024-02-23T12:32:20;100505.53;;;3.67;100.00
66021;BME280;52789;59.980;30.346;2024-02-23T12:34:46;100517.47;;;3.71;100.00
66021;BME280;52789;59.980;30.346;2024-02-23T12:37:15;100503.50;;;3.60;100.00